N502T KIND-KIND
Flight info
| Callsign | N502T |
|---|---|
| Flight time | 0h 26m |
| Altitude | 4000 |
| Route | VHP |
| Aircraft | BE60/L-SDFGRY/C |
Departure
| Time | 2026-05-05 23:29 |
|---|---|
| Airport | Indianapolis International Airport (KIND) |
Arrival
| Time | 2026-05-05 23:55 |
|---|---|
| Airport | Indianapolis International Airport (KIND) |
| Time | Latitude | Longitude | Altitude | Speed | Heading |
|---|---|---|---|---|---|
| 2026-05-05 23:12 | 39.72844 | -86.27651 | 783 ft | 0 kts | 262° |
| 2026-05-05 23:12 | 39.72844 | -86.27650 | 783 ft | 0 kts | 262° |
| 2026-05-05 23:15 | 39.72828 | -86.27649 | 782 ft | 3 kts | 135° |
| 2026-05-05 23:15 | 39.72807 | -86.27621 | 782 ft | 5 kts | 134° |
| 2026-05-05 23:15 | 39.72783 | -86.27590 | 781 ft | 5 kts | 137° |
| 2026-05-05 23:15 | 39.72772 | -86.27577 | 781 ft | 0 kts | 143° |
| 2026-05-05 23:16 | 39.72771 | -86.27577 | 781 ft | 2 kts | 152° |
| 2026-05-05 23:16 | 39.72762 | -86.27562 | 781 ft | 0 kts | 44° |
| 2026-05-05 23:16 | 39.72767 | -86.27561 | 781 ft | 1 kts | 349° |
| 2026-05-05 23:16 | 39.72768 | -86.27561 | 781 ft | 0 kts | 343° |
| 2026-05-05 23:18 | 39.72767 | -86.27561 | 781 ft | 0 kts | 343° |
| 2026-05-05 23:19 | 39.72768 | -86.27561 | 781 ft | 0 kts | 353° |
| 2026-05-05 23:19 | 39.72774 | -86.27557 | 781 ft | 2 kts | 55° |
| 2026-05-05 23:19 | 39.72753 | -86.27527 | 781 ft | 7 kts | 172° |
| 2026-05-05 23:19 | 39.72729 | -86.27527 | 780 ft | 0 kts | 187° |
| 2026-05-05 23:20 | 39.72708 | -86.27535 | 779 ft | 8 kts | 201° |
| 2026-05-05 23:20 | 39.72648 | -86.27552 | 776 ft | 9 kts | 148° |
| 2026-05-05 23:21 | 39.72607 | -86.27501 | 777 ft | 8 kts | 135° |
| 2026-05-05 23:21 | 39.72561 | -86.27439 | 777 ft | 11 kts | 135° |
| 2026-05-05 23:21 | 39.72495 | -86.27350 | 777 ft | 16 kts | 134° |
| 2026-05-05 23:21 | 39.72419 | -86.27253 | 779 ft | 14 kts | 135° |
| 2026-05-05 23:22 | 39.72339 | -86.27196 | 778 ft | 11 kts | 194° |
| 2026-05-05 23:22 | 39.72291 | -86.27256 | 775 ft | 11 kts | 225° |
| 2026-05-05 23:22 | 39.72222 | -86.27350 | 776 ft | 17 kts | 224° |
| 2026-05-05 23:22 | 39.72141 | -86.27446 | 777 ft | 16 kts | 224° |
| 2026-05-05 23:23 | 39.72057 | -86.27553 | 781 ft | 18 kts | 224° |
| 2026-05-05 23:23 | 39.71955 | -86.27684 | 781 ft | 23 kts | 226° |
| 2026-05-05 23:23 | 39.71831 | -86.27842 | 782 ft | 26 kts | 224° |
| 2026-05-05 23:23 | 39.71695 | -86.28015 | 778 ft | 27 kts | 224° |
| 2026-05-05 23:24 | 39.71608 | -86.28191 | 777 ft | 21 kts | 245° |
| 2026-05-05 23:24 | 39.71527 | -86.28329 | 776 ft | 18 kts | 224° |
| 2026-05-05 23:24 | 39.71425 | -86.28458 | 778 ft | 23 kts | 226° |
| 2026-05-05 23:24 | 39.71302 | -86.28614 | 781 ft | 25 kts | 225° |
| 2026-05-05 23:25 | 39.71186 | -86.28762 | 781 ft | 22 kts | 224° |
| 2026-05-05 23:25 | 39.71110 | -86.28863 | 781 ft | 8 kts | 243° |
| 2026-05-05 23:25 | 39.71110 | -86.28888 | 781 ft | 0 kts | 315° |
| 2026-05-05 23:27 | 39.71111 | -86.28889 | 781 ft | 1 kts | 315° |
| 2026-05-05 23:27 | 39.71143 | -86.28931 | 780 ft | 10 kts | 314° |
| 2026-05-05 23:27 | 39.71179 | -86.28970 | 778 ft | 3 kts | 23° |
| 2026-05-05 23:27 | 39.71182 | -86.28968 | 778 ft | 0 kts | 43° |
| 2026-05-05 23:28 | 39.71184 | -86.28965 | 778 ft | 9 kts | 44° |
| 2026-05-05 23:28 | 39.71448 | -86.28619 | 794 ft | 90 kts | 39° |
| 2026-05-05 23:28 | 39.71916 | -86.27940 | 1122 ft | 108 kts | 46° |
| 2026-05-05 23:29 | 39.72427 | -86.27083 | 1508 ft | 131 kts | 49° |
| 2026-05-05 23:29 | 39.73055 | -86.26101 | 1725 ft | 150 kts | 46° |
| 2026-05-05 23:29 | 39.73766 | -86.25043 | 1921 ft | 159 kts | 45° |
| 2026-05-05 23:29 | 39.74672 | -86.24277 | 2117 ft | 157 kts | 7° |
| 2026-05-05 23:30 | 39.75659 | -86.24686 | 2387 ft | 156 kts | 319° |
| 2026-05-05 23:30 | 39.76049 | -86.25496 | 2561 ft | 159 kts | 300° |
| 2026-05-05 23:30 | 39.76916 | -86.26925 | 2950 ft | 150 kts | 330° |
| 2026-05-05 23:30 | 39.77830 | -86.27594 | 3197 ft | 152 kts | 333° |
| 2026-05-05 23:31 | 39.78781 | -86.28208 | 3448 ft | 154 kts | 335° |
| 2026-05-05 23:31 | 39.79756 | -86.28794 | 3693 ft | 155 kts | 334° |
| 2026-05-05 23:31 | 39.80751 | -86.29372 | 3860 ft | 158 kts | 334° |
| 2026-05-05 23:31 | 39.81769 | -86.29951 | 3937 ft | 162 kts | 334° |
| 2026-05-05 23:32 | 39.82643 | -86.30840 | 3969 ft | 164 kts | 299° |
| 2026-05-05 23:32 | 39.82743 | -86.32293 | 3978 ft | 169 kts | 253° |
| 2026-05-05 23:32 | 39.82050 | -86.33550 | 3989 ft | 174 kts | 229° |
| 2026-05-05 23:32 | 39.81182 | -86.34666 | 3983 ft | 176 kts | 226° |
| 2026-05-05 23:33 | 39.80289 | -86.35758 | 3985 ft | 176 kts | 226° |
| 2026-05-05 23:33 | 39.79396 | -86.36853 | 3990 ft | 176 kts | 227° |
| 2026-05-05 23:33 | 39.78499 | -86.37941 | 3986 ft | 176 kts | 225° |
| 2026-05-05 23:33 | 39.77583 | -86.39021 | 3894 ft | 181 kts | 226° |
| 2026-05-05 23:34 | 39.76619 | -86.40149 | 3654 ft | 191 kts | 225° |
| 2026-05-05 23:34 | 39.75608 | -86.41323 | 3402 ft | 199 kts | 225° |
| 2026-05-05 23:34 | 39.74559 | -86.42540 | 3192 ft | 203 kts | 225° |
| 2026-05-05 23:34 | 39.73513 | -86.43757 | 3065 ft | 201 kts | 225° |
| 2026-05-05 23:35 | 39.72474 | -86.44960 | 3027 ft | 202 kts | 225° |
| 2026-05-05 23:35 | 39.71418 | -86.46183 | 3009 ft | 204 kts | 225° |
| 2026-05-05 23:35 | 39.70355 | -86.47410 | 3003 ft | 205 kts | 225° |
| 2026-05-05 23:35 | 39.69296 | -86.48646 | 2998 ft | 204 kts | 225° |
| 2026-05-05 23:36 | 39.68244 | -86.49885 | 3000 ft | 205 kts | 225° |
| 2026-05-05 23:36 | 39.67192 | -86.51133 | 3000 ft | 205 kts | 225° |
| 2026-05-05 23:36 | 39.66141 | -86.52375 | 2999 ft | 204 kts | 225° |
| 2026-05-05 23:36 | 39.64978 | -86.53412 | 2995 ft | 207 kts | 199° |
| 2026-05-05 23:37 | 39.63534 | -86.53431 | 2998 ft | 214 kts | 161° |
| 2026-05-05 23:37 | 39.62665 | -86.52827 | 3004 ft | 216 kts | 142° |
| 2026-05-05 23:37 | 39.61478 | -86.51614 | 2999 ft | 218 kts | 138° |
| 2026-05-05 23:37 | 39.60331 | -86.50328 | 2997 ft | 217 kts | 134° |
| 2026-05-05 23:38 | 39.59604 | -86.48683 | 2992 ft | 210 kts | 98° |
| 2026-05-05 23:38 | 39.59640 | -86.46829 | 3002 ft | 204 kts | 76° |
| 2026-05-05 23:38 | 39.60255 | -86.45259 | 2998 ft | 193 kts | 45° |
| 2026-05-05 23:38 | 39.61190 | -86.44045 | 2995 ft | 188 kts | 40° |
| 2026-05-05 23:39 | 39.62141 | -86.42899 | 2993 ft | 185 kts | 40° |
| 2026-05-05 23:39 | 39.63066 | -86.41756 | 2980 ft | 184 kts | 41° |
| 2026-05-05 23:39 | 39.63984 | -86.40548 | 2672 ft | 187 kts | 43° |
| 2026-05-05 23:39 | 39.64886 | -86.39380 | 2424 ft | 180 kts | 41° |
| 2026-05-05 23:40 | 39.65775 | -86.38268 | 2179 ft | 176 kts | 40° |
| 2026-05-05 23:40 | 39.66647 | -86.37174 | 1941 ft | 173 kts | 41° |
| 2026-05-05 23:40 | 39.67498 | -86.36087 | 1687 ft | 168 kts | 42° |
| 2026-05-05 23:40 | 39.68301 | -86.35058 | 1443 ft | 157 kts | 42° |
| 2026-05-05 23:41 | 39.69011 | -86.34134 | 1254 ft | 123 kts | 41° |
| 2026-05-05 23:41 | 39.69544 | -86.33449 | 1091 ft | 97 kts | 37° |
| 2026-05-05 23:41 | 39.70024 | -86.32859 | 968 ft | 93 kts | 40° |
| 2026-05-05 23:41 | 39.70490 | -86.32273 | 887 ft | 94 kts | 39° |
| 2026-05-05 23:42 | 39.70941 | -86.31694 | 778 ft | 84 kts | 39° |
| 2026-05-05 23:42 | 39.71323 | -86.31213 | 773 ft | 75 kts | 46° |
| 2026-05-05 23:42 | 39.71753 | -86.30660 | 841 ft | 101 kts | 37° |
| 2026-05-05 23:42 | 39.72300 | -86.29942 | 1072 ft | 119 kts | 42° |
| 2026-05-05 23:43 | 39.72832 | -86.29095 | 1470 ft | 125 kts | 57° |
| 2026-05-05 23:43 | 39.72961 | -86.27977 | 1872 ft | 136 kts | 104° |
| 2026-05-05 23:43 | 39.72338 | -86.26963 | 2141 ft | 151 kts | 131° |
| 2026-05-05 23:43 | 39.71535 | -86.26012 | 2420 ft | 161 kts | 133° |
| 2026-05-05 23:44 | 39.70678 | -86.25034 | 2684 ft | 167 kts | 134° |
| 2026-05-05 23:44 | 39.69787 | -86.24009 | 2859 ft | 176 kts | 134° |
| 2026-05-05 23:44 | 39.68853 | -86.22907 | 2935 ft | 186 kts | 135° |
| 2026-05-05 23:44 | 39.67882 | -86.21753 | 2961 ft | 192 kts | 135° |
| 2026-05-05 23:45 | 39.66884 | -86.20563 | 2976 ft | 197 kts | 135° |
| 2026-05-05 23:45 | 39.65792 | -86.19470 | 2970 ft | 202 kts | 156° |
| 2026-05-05 23:45 | 39.64426 | -86.19319 | 2974 ft | 204 kts | 196° |
| 2026-05-05 23:45 | 39.63202 | -86.20185 | 2978 ft | 201 kts | 220° |
| 2026-05-05 23:46 | 39.62086 | -86.21334 | 2981 ft | 203 kts | 223° |
| 2026-05-05 23:46 | 39.61006 | -86.22518 | 2977 ft | 204 kts | 224° |
| 2026-05-05 23:46 | 39.59946 | -86.23708 | 2967 ft | 206 kts | 224° |
| 2026-05-05 23:46 | 39.58841 | -86.24980 | 2974 ft | 213 kts | 224° |
| 2026-05-05 23:47 | 39.57746 | -86.26256 | 2994 ft | 217 kts | 225° |
| 2026-05-05 23:47 | 39.56623 | -86.27569 | 2996 ft | 218 kts | 225° |
| 2026-05-05 23:47 | 39.55470 | -86.28904 | 2994 ft | 219 kts | 225° |
| 2026-05-05 23:47 | 39.54358 | -86.30203 | 2991 ft | 218 kts | 225° |
| 2026-05-05 23:48 | 39.53237 | -86.31517 | 2995 ft | 217 kts | 225° |
| 2026-05-05 23:48 | 39.52123 | -86.32836 | 2992 ft | 216 kts | 226° |
| 2026-05-05 23:48 | 39.51284 | -86.34373 | 2989 ft | 206 kts | 257° |
| 2026-05-05 23:48 | 39.51320 | -86.36138 | 2987 ft | 195 kts | 295° |
| 2026-05-05 23:49 | 39.52050 | -86.37578 | 2987 ft | 191 kts | 311° |
| 2026-05-05 23:49 | 39.52894 | -86.38896 | 2989 ft | 190 kts | 313° |
| 2026-05-05 23:49 | 39.53758 | -86.40183 | 2990 ft | 189 kts | 314° |
| 2026-05-05 23:49 | 39.54628 | -86.41449 | 2995 ft | 188 kts | 314° |
| 2026-05-05 23:50 | 39.55494 | -86.42699 | 2997 ft | 185 kts | 315° |
| 2026-05-05 23:50 | 39.56500 | -86.43670 | 2998 ft | 180 kts | 344° |
| 2026-05-05 23:50 | 39.57726 | -86.43616 | 2992 ft | 177 kts | 11° |
| 2026-05-05 23:50 | 39.58869 | -86.43068 | 2992 ft | 177 kts | 29° |
| 2026-05-05 23:51 | 39.59902 | -86.42209 | 2991 ft | 174 kts | 24° |
| 2026-05-05 23:51 | 39.61011 | -86.41691 | 2993 ft | 167 kts | 22° |
| 2026-05-05 23:51 | 39.61929 | -86.40789 | 2995 ft | 165 kts | 39° |
| 2026-05-05 23:51 | 39.62730 | -86.39762 | 3164 ft | 154 kts | 41° |
| 2026-05-05 23:52 | 39.63520 | -86.38733 | 2956 ft | 164 kts | 41° |
| 2026-05-05 23:52 | 39.64343 | -86.37710 | 2833 ft | 163 kts | 41° |
| 2026-05-05 23:52 | 39.65130 | -86.36619 | 2497 ft | 168 kts | 44° |
| 2026-05-05 23:52 | 39.65959 | -86.35593 | 2053 ft | 158 kts | 37° |
| 2026-05-05 23:53 | 39.66747 | -86.34760 | 1779 ft | 129 kts | 35° |
| 2026-05-05 23:53 | 39.67348 | -86.34014 | 1472 ft | 112 kts | 49° |
| 2026-05-05 23:53 | 39.67785 | -86.33244 | 1295 ft | 100 kts | 43° |
| 2026-05-05 23:53 | 39.68274 | -86.32670 | 1145 ft | 91 kts | 39° |
| 2026-05-05 23:54 | 39.68712 | -86.32085 | 1060 ft | 88 kts | 36° |
| 2026-05-05 23:54 | 39.69157 | -86.31546 | 1005 ft | 89 kts | 38° |
| 2026-05-05 23:54 | 39.69603 | -86.30962 | 893 ft | 93 kts | 38° |
| 2026-05-05 23:54 | 39.70034 | -86.30427 | 807 ft | 81 kts | 37° |
| 2026-05-05 23:55 | 39.70386 | -86.29987 | 777 ft | 54 kts | 44° |
| 2026-05-05 23:55 | 39.70526 | -86.29802 | 778 ft | 13 kts | 44° |
| 2026-05-05 23:55 | 39.70592 | -86.29718 | 780 ft | 20 kts | 44° |
| 2026-05-05 23:55 | 39.70847 | -86.29391 | 780 ft | 82 kts | 41° |
| 2026-05-05 23:56 | 39.71350 | -86.28756 | 952 ft | 116 kts | 42° |
| 2026-05-05 23:56 | 39.71946 | -86.27946 | 1344 ft | 132 kts | 45° |
| 2026-05-05 23:56 | 39.72594 | -86.27037 | 1729 ft | 140 kts | 44° |
| 2026-05-05 23:56 | 39.73247 | -86.26079 | 2180 ft | 143 kts | 46° |
| 2026-05-05 23:57 | 39.73536 | -86.24843 | 2584 ft | 154 kts | 94° |
| 2026-05-05 23:57 | 39.72973 | -86.23628 | 2975 ft | 163 kts | 131° |
| 2026-05-05 23:57 | 39.72129 | -86.22641 | 3367 ft | 164 kts | 140° |
| 2026-05-05 23:57 | 39.71229 | -86.21729 | 3742 ft | 164 kts | 143° |
| 2026-05-05 23:58 | 39.70345 | -86.20824 | 4120 ft | 158 kts | 146° |
| 2026-05-05 23:58 | 39.69500 | -86.19960 | 4508 ft | 150 kts | 156° |
| 2026-05-05 23:58 | 39.68559 | -86.19840 | 4832 ft | 136 kts | 196° |
| 2026-05-05 23:58 | 39.67637 | -86.19643 | 5148 ft | 143 kts | 154° |
| 2026-05-05 23:59 | 39.66857 | -86.18832 | 5471 ft | 145 kts | 143° |
| 2026-05-05 23:59 | 39.66075 | -86.17804 | 5385 ft | 170 kts | 141° |
| 2026-05-05 23:59 | 39.65185 | -86.16663 | 5171 ft | 188 kts | 142° |
| 2026-05-05 23:59 | 39.64202 | -86.15476 | 4950 ft | 198 kts | 142° |
| 2026-05-06 00:00 | 39.63197 | -86.14226 | 4705 ft | 202 kts | 140° |
| 2026-05-06 00:00 | 39.62180 | -86.12946 | 4441 ft | 205 kts | 140° |
| 2026-05-06 00:00 | 39.61136 | -86.11677 | 4182 ft | 207 kts | 142° |
| 2026-05-06 00:00 | 39.60040 | -86.10478 | 4022 ft | 203 kts | 144° |
| 2026-05-06 00:01 | 39.58969 | -86.09347 | 4006 ft | 195 kts | 144° |
| 2026-05-06 00:01 | 39.57919 | -86.08273 | 3981 ft | 189 kts | 146° |
| 2026-05-06 00:01 | 39.56923 | -86.07221 | 3981 ft | 186 kts | 142° |
| 2026-05-06 00:01 | 39.55988 | -86.06060 | 3984 ft | 186 kts | 139° |
| 2026-05-06 00:02 | 39.55082 | -86.04875 | 3979 ft | 185 kts | 139° |
| 2026-05-06 00:02 | 39.54174 | -86.03705 | 3974 ft | 184 kts | 139° |
| 2026-05-06 00:02 | 39.53264 | -86.02541 | 3968 ft | 183 kts | 142° |
| 2026-05-06 00:02 | 39.52172 | -86.01868 | 3971 ft | 172 kts | 175° |
| 2026-05-06 00:03 | 39.51007 | -86.01638 | 3965 ft | 167 kts | 176° |
| 2026-05-06 00:03 | 39.49866 | -86.01435 | 3971 ft | 165 kts | 177° |
| 2026-05-06 00:03 | 39.48735 | -86.01232 | 3969 ft | 164 kts | 176° |
| 2026-05-06 00:03 | 39.47609 | -86.01028 | 3971 ft | 163 kts | 178° |
| 2026-05-06 00:04 | 39.46482 | -86.00844 | 3967 ft | 162 kts | 185° |
| 2026-05-06 00:04 | 39.45505 | -86.01363 | 3977 ft | 155 kts | 231° |
| 2026-05-06 00:04 | 39.45227 | -86.02658 | 3986 ft | 158 kts | 279° |
| 2026-05-06 00:04 | 39.45881 | -86.03818 | 3988 ft | 171 kts | 325° |
| 2026-05-06 00:05 | 39.48286 | -86.04339 | 3962 ft | 178 kts | 352° |
| 2026-05-06 00:05 | 39.49522 | -86.04410 | 3963 ft | 177 kts | 353° |
| 2026-05-06 00:05 | 39.50753 | -86.04461 | 3967 ft | 177 kts | 353° |
| 2026-05-06 00:06 | 39.51984 | -86.04506 | 3971 ft | 177 kts | 353° |
| 2026-05-06 00:06 | 39.53212 | -86.04554 | 3970 ft | 176 kts | 354° |
| 2026-05-06 00:06 | 39.54405 | -86.04818 | 3977 ft | 173 kts | 334° |
| 2026-05-06 00:06 | 39.55446 | -86.05569 | 3979 ft | 171 kts | 319° |
| 2026-05-06 00:07 | 39.56348 | -86.06569 | 3981 ft | 170 kts | 313° |
| 2026-05-06 00:07 | 39.57192 | -86.07647 | 3929 ft | 173 kts | 312° |
| 2026-05-06 00:07 | 39.58022 | -86.08732 | 3683 ft | 164 kts | 314° |
| 2026-05-06 00:07 | 39.58811 | -86.09753 | 3426 ft | 157 kts | 315° |
| 2026-05-06 00:08 | 39.59572 | -86.10743 | 3190 ft | 154 kts | 316° |
| 2026-05-06 00:08 | 39.60311 | -86.11707 | 2933 ft | 152 kts | 318° |
| 2026-05-06 00:08 | 39.61056 | -86.12677 | 2671 ft | 152 kts | 320° |
| 2026-05-06 00:08 | 39.61804 | -86.13646 | 2431 ft | 152 kts | 320° |
| 2026-05-06 00:09 | 39.62527 | -86.14596 | 2396 ft | 141 kts | 320° |
| 2026-05-06 00:09 | 39.63203 | -86.15482 | 2384 ft | 135 kts | 320° |
| 2026-05-06 00:09 | 39.63855 | -86.16332 | 2394 ft | 131 kts | 320° |
| 2026-05-06 00:09 | 39.64468 | -86.17132 | 2396 ft | 124 kts | 321° |
| 2026-05-06 00:10 | 39.65079 | -86.17926 | 2404 ft | 125 kts | 320° |
| 2026-05-06 00:10 | 39.65692 | -86.18726 | 2404 ft | 124 kts | 320° |
| 2026-05-06 00:10 | 39.66287 | -86.19508 | 2398 ft | 122 kts | 321° |
| 2026-05-06 00:10 | 39.66887 | -86.20296 | 2315 ft | 121 kts | 321° |
| 2026-05-06 00:11 | 39.67460 | -86.21048 | 2150 ft | 116 kts | 321° |
| 2026-05-06 00:11 | 39.68026 | -86.21785 | 1988 ft | 114 kts | 321° |
| 2026-05-06 00:11 | 39.68574 | -86.22508 | 1826 ft | 111 kts | 321° |
| 2026-05-06 00:11 | 39.69122 | -86.23223 | 1667 ft | 113 kts | 319° |
| 2026-05-06 00:12 | 39.69677 | -86.23959 | 1491 ft | 115 kts | 319° |
| 2026-05-06 00:12 | 39.70238 | -86.24701 | 1311 ft | 115 kts | 319° |
| 2026-05-06 00:12 | 39.70793 | -86.25428 | 1167 ft | 113 kts | 318° |
| 2026-05-06 00:12 | 39.71347 | -86.26158 | 1014 ft | 111 kts | 319° |
| 2026-05-06 00:13 | 39.71861 | -86.26838 | 886 ft | 99 kts | 321° |
| 2026-05-06 00:13 | 39.72302 | -86.27417 | 778 ft | 78 kts | 321° |
| 2026-05-06 00:13 | 39.72595 | -86.27788 | 771 ft | 38 kts | 314° |
| 2026-05-06 00:13 | 39.72749 | -86.27999 | 773 ft | 28 kts | 316° |
| 2026-05-06 00:14 | 39.72833 | -86.28012 | 774 ft | 8 kts | 49° |
| 2026-05-06 00:14 | 39.72865 | -86.27971 | 775 ft | 5 kts | 45° |
| 2026-05-06 00:14 | 39.72894 | -86.27932 | 777 ft | 9 kts | 53° |
| 2026-05-06 00:14 | 39.72874 | -86.27850 | 778 ft | 15 kts | 133° |
| 2026-05-06 00:15 | 39.72780 | -86.27728 | 778 ft | 21 kts | 134° |
| 2026-05-06 00:15 | 39.72682 | -86.27597 | 775 ft | 11 kts | 128° |
| 2026-05-06 00:15 | 39.72692 | -86.27537 | 778 ft | 5 kts | 45° |
| 2026-05-06 00:15 | 39.72714 | -86.27499 | 780 ft | 6 kts | 82° |
| 2026-05-06 00:16 | 39.72676 | -86.27427 | 782 ft | 13 kts | 123° |
| 2026-05-06 00:16 | 39.72636 | -86.27351 | 783 ft | 7 kts | 134° |
| 2026-05-06 00:16 | 39.72592 | -86.27301 | 783 ft | 8 kts | 166° |
| 2026-05-06 00:16 | 39.72569 | -86.27304 | 782 ft | 2 kts | 215° |
| 2026-05-06 00:17 | 39.72560 | -86.27296 | 781 ft | 0 kts | 87° |
| 2026-05-06 00:17 | 39.72560 | -86.27295 | 781 ft | 0 kts | 77° |